sensor_id;sensor_type;location;lat;lon;timestamp;P1;durP1;ratioP1;P2;durP2;ratioP2
43413;SDS011;29013;49.676;8.606;2023-06-19T00:04:28;3.31;;;2.24;;
43413;SDS011;29013;49.676;8.606;2023-06-19T00:09:52;3.91;;;2.8;;
43413;SDS011;29013;49.676;8.606;2023-06-19T00:15:15;3.42;;;2.33;;
43413;SDS011;29013;49.676;8.606;2023-06-19T00:20:40;3.5;;;2.61;;
43413;SDS011;29013;49.676;8.606;2023-06-19T00:25:58;4.08;;;2.48;;
43413;SDS011;29013;49.676;8.606;2023-06-19T00:31:17;5.58;;;3.18;;
43413;SDS011;29013;49.676;8.606;2023-06-19T00:36:41;4.31;;;2.68;;
43413;SDS011;29013;49.676;8.606;2023-06-19T00:42:05;5.68;;;3.22;;
43413;SDS011;29013;49.676;8.606;2023-06-19T00:47:30;5.01;;;2.82;;
43413;SDS011;29013;49.676;8.606;2023-06-19T00:52:54;4.63;;;3.02;;
43413;SDS011;29013;49.676;8.606;2023-06-19T00:58:18;6.74;;;3.1;;
43413;SDS011;29013;49.676;8.606;2023-06-19T01:03:41;5.03;;;3.25;;
43413;SDS011;29013;49.676;8.606;2023-06-19T01:09:06;5.03;;;3.09;;
43413;SDS011;29013;49.676;8.606;2023-06-19T01:14:30;4.54;;;3.23;;
43413;SDS011;29013;49.676;8.606;2023-06-19T01:20:12;7.93;;;3.76;;
43413;SDS011;29013;49.676;8.606;2023-06-19T01:25:35;4.4;;;3.18;;
43413;SDS011;29013;49.676;8.606;2023-06-19T01:31:01;5.25;;;3.41;;
43413;SDS011;29013;49.676;8.606;2023-06-19T01:36:23;4.96;;;3.57;;
43413;SDS011;29013;49.676;8.606;2023-06-19T01:41:48;3.96;;;3.1;;
43413;SDS011;29013;49.676;8.606;2023-06-19T01:47:12;6.66;;;4.1;;
43413;SDS011;29013;49.676;8.606;2023-06-19T01:52:33;5.51;;;3.83;;
43413;SDS011;29013;49.676;8.606;2023-06-19T01:57:52;5.44;;;3.93;;
43413;SDS011;29013;49.676;8.606;2023-06-19T02:03:13;4.62;;;3.37;;
43413;SDS011;29013;49.676;8.606;2023-06-19T02:08:38;5.45;;;3.75;;
43413;SDS011;29013;49.676;8.606;2023-06-19T02:14:00;5.28;;;3.41;;
43413;SDS011;29013;49.676;8.606;2023-06-19T02:19:23;7.54;;;4.05;;
43413;SDS011;29013;49.676;8.606;2023-06-19T02:24:48;5.3;;;3.48;;
43413;SDS011;29013;49.676;8.606;2023-06-19T02:30:14;5.29;;;3.54;;
43413;SDS011;29013;49.676;8.606;2023-06-19T02:35:39;3.81;;;3.43;;
43413;SDS011;29013;49.676;8.606;2023-06-19T02:41:03;5.98;;;3.52;;
43413;SDS011;29013;49.676;8.606;2023-06-19T02:46:49;7.01;;;4.09;;
43413;SDS011;29013;49.676;8.606;2023-06-19T02:52:13;4.63;;;3.37;;
43413;SDS011;29013;49.676;8.606;2023-06-19T02:57:39;7.28;;;3.73;;
43413;SDS011;29013;49.676;8.606;2023-06-19T03:03:05;5.09;;;3.82;;
43413;SDS011;29013;49.676;8.606;2023-06-19T03:09:12;5.93;;;4.31;;
43413;SDS011;29013;49.676;8.606;2023-06-19T03:14:35;4.84;;;3.46;;
43413;SDS011;29013;49.676;8.606;2023-06-19T03:20:00;4.44;;;3.31;;
43413;SDS011;29013;49.676;8.606;2023-06-19T03:25:27;6.0;;;3.68;;
43413;SDS011;29013;49.676;8.606;2023-06-19T03:30:50;4.92;;;3.64;;
43413;SDS011;29013;49.676;8.606;2023-06-19T03:36:14;6.6;;;3.17;;
43413;SDS011;29013;49.676;8.606;2023-06-19T03:41:33;3.36;;;2.83;;
43413;SDS011;29013;49.676;8.606;2023-06-19T03:46:58;2.88;;;2.7;;
43413;SDS011;29013;49.676;8.606;2023-06-19T03:52:24;3.85;;;2.93;;
43413;SDS011;29013;49.676;8.606;2023-06-19T03:57:49;4.06;;;2.69;;
43413;SDS011;29013;49.676;8.606;2023-06-19T04:03:08;6.58;;;2.33;;
43413;SDS011;29013;49.676;8.606;2023-06-19T04:08:33;3.2;;;2.42;;
43413;SDS011;29013;49.676;8.606;2023-06-19T04:13:57;2.46;;;2.18;;
43413;SDS011;29013;49.676;8.606;2023-06-19T04:19:21;3.49;;;2.47;;
43413;SDS011;29013;49.676;8.606;2023-06-19T04:24:46;3.52;;;2.17;;
43413;SDS011;29013;49.676;8.606;2023-06-19T04:30:12;3.46;;;1.91;;
43413;SDS011;29013;49.676;8.606;2023-06-19T04:35:37;2.41;;;1.48;;
43413;SDS011;29013;49.676;8.606;2023-06-19T04:41:03;2.01;;;1.62;;
43413;SDS011;29013;49.676;8.606;2023-06-19T04:46:24;3.42;;;1.5;;
43413;SDS011;29013;49.676;8.606;2023-06-19T04:51:44;2.06;;;1.38;;
43413;SDS011;29013;49.676;8.606;2023-06-19T04:57:11;1.54;;;1.19;;
43413;SDS011;29013;49.676;8.606;2023-06-19T05:02:31;2.05;;;1.45;;
43413;SDS011;29013;49.676;8.606;2023-06-19T05:08:10;2.06;;;1.37;;
43413;SDS011;29013;49.676;8.606;2023-06-19T05:13:33;3.22;;;1.2;;
43413;SDS011;29013;49.676;8.606;2023-06-19T05:18:57;1.98;;;1.64;;
43413;SDS011;29013;49.676;8.606;2023-06-19T05:24:22;1.79;;;1.45;;
43413;SDS011;29013;49.676;8.606;2023-06-19T05:29:47;0.96;;;0.94;;
43413;SDS011;29013;49.676;8.606;2023-06-19T05:35:12;1.48;;;1.18;;
43413;SDS011;29013;49.676;8.606;2023-06-19T05:40:33;1.79;;;1.27;;
43413;SDS011;29013;49.676;8.606;2023-06-19T05:45:58;1.36;;;1.18;;
43413;SDS011;29013;49.676;8.606;2023-06-19T05:51:23;1.51;;;1.06;;
43413;SDS011;29013;49.676;8.606;2023-06-19T05:57:10;1.83;;;1.57;;
43413;SDS011;29013;49.676;8.606;2023-06-19T06:02:33;1.8;;;1.33;;
43413;SDS011;29013;49.676;8.606;2023-06-19T06:08:25;1.87;;;1.29;;
43413;SDS011;29013;49.676;8.606;2023-06-19T06:13:43;2.5;;;1.51;;
43413;SDS011;29013;49.676;8.606;2023-06-19T06:19:08;1.96;;;1.21;;
43413;SDS011;29013;49.676;8.606;2023-06-19T06:24:33;5.41;;;1.54;;
43413;SDS011;29013;49.676;8.606;2023-06-19T06:29:57;1.39;;;1.1;;
43413;SDS011;29013;49.676;8.606;2023-06-19T06:35:18;1.91;;;1.27;;
43413;SDS011;29013;49.676;8.606;2023-06-19T06:40:44;1.77;;;1.14;;
43413;SDS011;29013;49.676;8.606;2023-06-19T06:46:10;3.92;;;1.85;;
43413;SDS011;29013;49.676;8.606;2023-06-19T06:51:35;2.11;;;1.48;;
43413;SDS011;29013;49.676;8.606;2023-06-19T06:56:58;1.77;;;1.38;;
43413;SDS011;29013;49.676;8.606;2023-06-19T07:02:23;1.37;;;1.29;;
43413;SDS011;29013;49.676;8.606;2023-06-19T07:07:47;6.69;;;1.81;;
43413;SDS011;29013;49.676;8.606;2023-06-19T07:13:13;2.0;;;1.77;;
43413;SDS011;29013;49.676;8.606;2023-06-19T07:18:36;2.32;;;1.61;;
43413;SDS011;29013;49.676;8.606;2023-06-19T07:24:02;2.2;;;1.79;;
43413;SDS011;29013;49.676;8.606;2023-06-19T07:29:27;2.06;;;1.82;;
43413;SDS011;29013;49.676;8.606;2023-06-19T07:34:46;2.44;;;1.8;;
43413;SDS011;29013;49.676;8.606;2023-06-19T07:40:11;4.16;;;1.76;;
43413;SDS011;29013;49.676;8.606;2023-06-19T07:45:32;2.97;;;1.77;;
43413;SDS011;29013;49.676;8.606;2023-06-19T07:50:57;2.38;;;1.82;;
43413;SDS011;29013;49.676;8.606;2023-06-19T07:56:21;2.84;;;2.18;;
43413;SDS011;29013;49.676;8.606;2023-06-19T08:01:47;2.75;;;2.01;;
43413;SDS011;29013;49.676;8.606;2023-06-19T08:07:05;1.87;;;1.48;;
43413;SDS011;29013;49.676;8.606;2023-06-19T08:12:30;3.8;;;2.19;;
43413;SDS011;29013;49.676;8.606;2023-06-19T08:18:10;1.84;;;1.68;;
43413;SDS011;29013;49.676;8.606;2023-06-19T08:23:31;2.42;;;2.13;;
43413;SDS011;29013;49.676;8.606;2023-06-19T08:28:55;3.03;;;2.18;;
43413;SDS011;29013;49.676;8.606;2023-06-19T08:34:18;2.02;;;1.82;;
43413;SDS011;29013;49.676;8.606;2023-06-19T08:39:56;3.08;;;2.37;;
43413;SDS011;29013;49.676;8.606;2023-06-19T08:46:05;5.0;;;2.44;;
43413;SDS011;29013;49.676;8.606;2023-06-19T08:51:27;5.16;;;1.9;;
43413;SDS011;29013;49.676;8.606;2023-06-19T08:57:14;4.94;;;2.44;;
43413;SDS011;29013;49.676;8.606;2023-06-19T09:02:40;2.73;;;2.25;;
43413;SDS011;29013;49.676;8.606;2023-06-19T09:08:00;2.56;;;2.05;;
43413;SDS011;29013;49.676;8.606;2023-06-19T09:13:21;5.05;;;2.27;;
43413;SDS011;29013;49.676;8.606;2023-06-19T09:18:47;3.22;;;2.26;;
43413;SDS011;29013;49.676;8.606;2023-06-19T09:24:09;7.37;;;2.14;;
43413;SDS011;29013;49.676;8.606;2023-06-19T09:29:35;3.21;;;2.2;;
43413;SDS011;29013;49.676;8.606;2023-06-19T09:34:59;2.94;;;2.43;;
43413;SDS011;29013;49.676;8.606;2023-06-19T09:40:21;3.33;;;2.75;;
43413;SDS011;29013;49.676;8.606;2023-06-19T09:45:43;2.61;;;2.28;;
43413;SDS011;29013;49.676;8.606;2023-06-19T09:51:09;5.81;;;2.6;;
43413;SDS011;29013;49.676;8.606;2023-06-19T09:56:29;3.54;;;2.5;;
43413;SDS011;29013;49.676;8.606;2023-06-19T10:01:54;4.18;;;2.71;;
43413;SDS011;29013;49.676;8.606;2023-06-19T10:07:20;3.35;;;2.65;;
43413;SDS011;29013;49.676;8.606;2023-06-19T10:13:11;2.87;;;2.71;;
43413;SDS011;29013;49.676;8.606;2023-06-19T10:18:28;4.18;;;2.81;;
43413;SDS011;29013;49.676;8.606;2023-06-19T10:24:13;4.32;;;2.68;;
43413;SDS011;29013;49.676;8.606;2023-06-19T10:29:44;6.21;;;2.6;;
43413;SDS011;29013;49.676;8.606;2023-06-19T10:35:12;2.38;;;2.22;;
43413;SDS011;29013;49.676;8.606;2023-06-19T10:40:34;2.95;;;2.14;;
43413;SDS011;29013;49.676;8.606;2023-06-19T10:46:12;3.39;;;2.61;;
43413;SDS011;29013;49.676;8.606;2023-06-19T10:51:36;3.41;;;2.33;;
43413;SDS011;29013;49.676;8.606;2023-06-19T10:56:57;2.28;;;2.08;;
43413;SDS011;29013;49.676;8.606;2023-06-19T11:02:22;2.64;;;2.29;;
43413;SDS011;29013;49.676;8.606;2023-06-19T11:07:40;2.27;;;1.93;;
43413;SDS011;29013;49.676;8.606;2023-06-19T11:12:58;2.02;;;1.86;;
43413;SDS011;29013;49.676;8.606;2023-06-19T11:19:05;2.54;;;2.0;;
43413;SDS011;29013;49.676;8.606;2023-06-19T11:24:27;2.4;;;1.98;;
43413;SDS011;29013;49.676;8.606;2023-06-19T11:29:56;4.16;;;2.47;;
43413;SDS011;29013;49.676;8.606;2023-06-19T11:35:19;3.96;;;1.88;;
43413;SDS011;29013;49.676;8.606;2023-06-19T11:40:45;2.75;;;1.62;;
43413;SDS011;29013;49.676;8.606;2023-06-19T11:46:36;3.53;;;1.79;;
43413;SDS011;29013;49.676;8.606;2023-06-19T11:52:00;2.26;;;1.96;;
43413;SDS011;29013;49.676;8.606;2023-06-19T11:57:39;3.1;;;2.24;;
43413;SDS011;29013;49.676;8.606;2023-06-19T12:03:03;4.8;;;1.75;;
43413;SDS011;29013;49.676;8.606;2023-06-19T12:08:43;3.43;;;1.8;;
43413;SDS011;29013;49.676;8.606;2023-06-19T12:14:04;1.63;;;1.25;;
43413;SDS011;29013;49.676;8.606;2023-06-19T12:19:28;1.65;;;1.46;;
43413;SDS011;29013;49.676;8.606;2023-06-19T12:24:53;2.46;;;1.58;;
43413;SDS011;29013;49.676;8.606;2023-06-19T12:30:17;2.35;;;1.66;;
43413;SDS011;29013;49.676;8.606;2023-06-19T12:35:43;3.71;;;1.55;;
43413;SDS011;29013;49.676;8.606;2023-06-19T12:41:05;5.52;;;1.37;;
43413;SDS011;29013;49.676;8.606;2023-06-19T12:46:34;2.12;;;1.31;;
43413;SDS011;29013;49.676;8.606;2023-06-19T12:51:59;1.95;;;1.42;;
43413;SDS011;29013;49.676;8.606;2023-06-19T12:57:24;1.76;;;1.52;;
43413;SDS011;29013;49.676;8.606;2023-06-19T13:02:47;1.83;;;1.44;;
43413;SDS011;29013;49.676;8.606;2023-06-19T13:08:11;1.98;;;1.4;;
43413;SDS011;29013;49.676;8.606;2023-06-19T13:13:35;2.28;;;1.54;;
43413;SDS011;29013;49.676;8.606;2023-06-19T13:19:01;2.41;;;1.27;;
43413;SDS011;29013;49.676;8.606;2023-06-19T13:24:25;1.52;;;1.35;;
43413;SDS011;29013;49.676;8.606;2023-06-19T13:29:48;1.97;;;1.23;;
43413;SDS011;29013;49.676;8.606;2023-06-19T13:35:13;1.55;;;1.32;;
43413;SDS011;29013;49.676;8.606;2023-06-19T13:40:40;1.22;;;1.07;;
43413;SDS011;29013;49.676;8.606;2023-06-19T13:46:05;1.61;;;1.34;;
43413;SDS011;29013;49.676;8.606;2023-06-19T13:51:30;2.28;;;1.28;;
43413;SDS011;29013;49.676;8.606;2023-06-19T13:56:54;1.71;;;1.39;;
43413;SDS011;29013;49.676;8.606;2023-06-19T14:02:17;1.94;;;1.07;;
43413;SDS011;29013;49.676;8.606;2023-06-19T14:07:42;2.64;;;1.36;;
43413;SDS011;29013;49.676;8.606;2023-06-19T14:13:17;3.69;;;1.65;;
43413;SDS011;29013;49.676;8.606;2023-06-19T14:18:42;1.5;;;1.44;;
43413;SDS011;29013;49.676;8.606;2023-06-19T14:24:07;1.82;;;1.66;;
43413;SDS011;29013;49.676;8.606;2023-06-19T14:29:51;4.16;;;1.9;;
43413;SDS011;29013;49.676;8.606;2023-06-19T14:35:14;3.89;;;1.48;;
43413;SDS011;29013;49.676;8.606;2023-06-19T14:40:34;2.71;;;1.87;;
43413;SDS011;29013;49.676;8.606;2023-06-19T14:45:54;2.48;;;1.73;;
43413;SDS011;29013;49.676;8.606;2023-06-19T14:51:15;2.08;;;1.66;;
43413;SDS011;29013;49.676;8.606;2023-06-19T14:56:39;2.84;;;1.83;;
43413;SDS011;29013;49.676;8.606;2023-06-19T15:02:03;2.84;;;1.97;;
43413;SDS011;29013;49.676;8.606;2023-06-19T15:07:28;1.85;;;1.72;;
43413;SDS011;29013;49.676;8.606;2023-06-19T15:13:06;2.18;;;1.83;;
43413;SDS011;29013;49.676;8.606;2023-06-19T15:18:27;4.11;;;1.84;;
43413;SDS011;29013;49.676;8.606;2023-06-19T15:23:54;2.54;;;1.66;;
43413;SDS011;29013;49.676;8.606;2023-06-19T15:29:19;4.19;;;1.79;;
43413;SDS011;29013;49.676;8.606;2023-06-19T15:34:39;3.4;;;2.18;;
43413;SDS011;29013;49.676;8.606;2023-06-19T15:40:06;2.65;;;1.83;;
43413;SDS011;29013;49.676;8.606;2023-06-19T15:45:33;2.69;;;1.56;;
43413;SDS011;29013;49.676;8.606;2023-06-19T15:50:58;1.55;;;1.47;;
43413;SDS011;29013;49.676;8.606;2023-06-19T15:56:21;2.53;;;1.5;;
43413;SDS011;29013;49.676;8.606;2023-06-19T16:02:18;2.49;;;1.98;;
43413;SDS011;29013;49.676;8.606;2023-06-19T16:07:37;2.28;;;1.68;;
43413;SDS011;29013;49.676;8.606;2023-06-19T16:13:01;3.85;;;1.82;;
43413;SDS011;29013;49.676;8.606;2023-06-19T16:18:24;2.03;;;1.71;;
43413;SDS011;29013;49.676;8.606;2023-06-19T16:24:15;3.15;;;2.17;;
43413;SDS011;29013;49.676;8.606;2023-06-19T16:29:35;2.71;;;1.96;;
43413;SDS011;29013;49.676;8.606;2023-06-19T16:34:57;2.38;;;2.03;;
43413;SDS011;29013;49.676;8.606;2023-06-19T16:40:19;3.99;;;1.7;;
43413;SDS011;29013;49.676;8.606;2023-06-19T16:45:38;2.63;;;1.92;;
43413;SDS011;29013;49.676;8.606;2023-06-19T16:51:04;1.99;;;1.71;;
43413;SDS011;29013;49.676;8.606;2023-06-19T16:56:52;2.8;;;2.02;;
43413;SDS011;29013;49.676;8.606;2023-06-19T17:02:16;2.09;;;1.91;;
43413;SDS011;29013;49.676;8.606;2023-06-19T17:07:41;6.13;;;2.01;;
43413;SDS011;29013;49.676;8.606;2023-06-19T17:13:07;3.75;;;1.7;;
43413;SDS011;29013;49.676;8.606;2023-06-19T17:18:29;4.21;;;1.82;;
43413;SDS011;29013;49.676;8.606;2023-06-19T17:23:51;4.45;;;2.01;;
43413;SDS011;29013;49.676;8.606;2023-06-19T17:29:15;2.79;;;1.69;;
43413;SDS011;29013;49.676;8.606;2023-06-19T17:34:48;3.25;;;2.33;;
43413;SDS011;29013;49.676;8.606;2023-06-19T17:40:11;2.5;;;2.02;;
43413;SDS011;29013;49.676;8.606;2023-06-19T17:45:37;2.54;;;2.08;;
43413;SDS011;29013;49.676;8.606;2023-06-19T17:51:01;3.55;;;2.18;;
43413;SDS011;29013;49.676;8.606;2023-06-19T17:56:56;3.08;;;1.68;;
43413;SDS011;29013;49.676;8.606;2023-06-19T18:02:45;2.56;;;2.0;;
43413;SDS011;29013;49.676;8.606;2023-06-19T18:08:04;2.46;;;2.03;;
43413;SDS011;29013;49.676;8.606;2023-06-19T18:13:37;2.16;;;1.87;;
43413;SDS011;29013;49.676;8.606;2023-06-19T18:19:14;2.34;;;1.91;;
43413;SDS011;29013;49.676;8.606;2023-06-19T18:25:41;3.27;;;2.1;;
43413;SDS011;29013;49.676;8.606;2023-06-19T18:31:00;2.26;;;1.59;;
43413;SDS011;29013;49.676;8.606;2023-06-19T18:36:26;6.26;;;2.23;;
43413;SDS011;29013;49.676;8.606;2023-06-19T18:41:45;2.37;;;2.04;;
43413;SDS011;29013;49.676;8.606;2023-06-19T18:47:09;3.3;;;1.97;;
43413;SDS011;29013;49.676;8.606;2023-06-19T18:52:35;2.68;;;1.79;;
43413;SDS011;29013;49.676;8.606;2023-06-19T18:58:28;2.58;;;1.82;;
43413;SDS011;29013;49.676;8.606;2023-06-19T19:03:51;2.32;;;2.09;;
43413;SDS011;29013;49.676;8.606;2023-06-19T19:09:14;3.04;;;2.46;;
43413;SDS011;29013;49.676;8.606;2023-06-19T19:14:37;3.67;;;2.22;;
43413;SDS011;29013;49.676;8.606;2023-06-19T19:20:01;4.24;;;2.27;;
43413;SDS011;29013;49.676;8.606;2023-06-19T19:25:25;2.61;;;2.12;;
43413;SDS011;29013;49.676;8.606;2023-06-19T19:30:49;2.76;;;2.24;;
43413;SDS011;29013;49.676;8.606;2023-06-19T19:36:13;3.88;;;2.01;;
43413;SDS011;29013;49.676;8.606;2023-06-19T19:41:38;2.83;;;2.16;;
43413;SDS011;29013;49.676;8.606;2023-06-19T19:46:59;5.23;;;2.13;;
43413;SDS011;29013;49.676;8.606;2023-06-19T19:52:24;3.32;;;2.36;;
43413;SDS011;29013;49.676;8.606;2023-06-19T19:57:46;2.76;;;2.31;;
43413;SDS011;29013;49.676;8.606;2023-06-19T20:03:57;4.38;;;2.81;;
43413;SDS011;29013;49.676;8.606;2023-06-19T20:09:18;3.27;;;2.27;;
43413;SDS011;29013;49.676;8.606;2023-06-19T20:14:55;2.72;;;2.48;;
43413;SDS011;29013;49.676;8.606;2023-06-19T20:20:19;3.56;;;2.37;;
43413;SDS011;29013;49.676;8.606;2023-06-19T20:25:44;2.14;;;2.06;;
43413;SDS011;29013;49.676;8.606;2023-06-19T20:31:07;3.67;;;2.53;;
43413;SDS011;29013;49.676;8.606;2023-06-19T20:36:32;2.29;;;2.32;;
43413;SDS011;29013;49.676;8.606;2023-06-19T20:41:55;2.68;;;2.05;;
43413;SDS011;29013;49.676;8.606;2023-06-19T20:47:20;3.89;;;2.31;;
43413;SDS011;29013;49.676;8.606;2023-06-19T20:52:40;2.4;;;2.19;;
43413;SDS011;29013;49.676;8.606;2023-06-19T20:58:04;2.36;;;2.09;;
43413;SDS011;29013;49.676;8.606;2023-06-19T21:03:47;2.83;;;2.49;;
43413;SDS011;29013;49.676;8.606;2023-06-19T21:09:11;2.72;;;2.21;;
43413;SDS011;29013;49.676;8.606;2023-06-19T21:14:36;3.33;;;2.16;;
43413;SDS011;29013;49.676;8.606;2023-06-19T21:20:07;2.6;;;2.09;;
43413;SDS011;29013;49.676;8.606;2023-06-19T21:25:30;5.2;;;2.34;;
43413;SDS011;29013;49.676;8.606;2023-06-19T21:30:55;5.33;;;3.16;;
43413;SDS011;29013;49.676;8.606;2023-06-19T21:36:17;3.11;;;2.13;;
43413;SDS011;29013;49.676;8.606;2023-06-19T21:41:41;3.27;;;2.36;;
43413;SDS011;29013;49.676;8.606;2023-06-19T21:47:06;2.66;;;2.22;;
43413;SDS011;29013;49.676;8.606;2023-06-19T21:52:32;3.39;;;2.56;;
43413;SDS011;29013;49.676;8.606;2023-06-19T21:57:51;4.49;;;2.33;;
43413;SDS011;29013;49.676;8.606;2023-06-19T22:03:15;2.28;;;2.03;;
43413;SDS011;29013;49.676;8.606;2023-06-19T22:08:33;2.94;;;2.04;;
43413;SDS011;29013;49.676;8.606;2023-06-19T22:13:54;2.67;;;2.26;;
43413;SDS011;29013;49.676;8.606;2023-06-19T22:19:18;3.33;;;2.43;;
43413;SDS011;29013;49.676;8.606;2023-06-19T22:24:36;2.27;;;1.97;;
43413;SDS011;29013;49.676;8.606;2023-06-19T22:29:55;1.85;;;1.82;;
43413;SDS011;29013;49.676;8.606;2023-06-19T22:35:17;3.16;;;2.34;;
43413;SDS011;29013;49.676;8.606;2023-06-19T22:40:43;3.01;;;2.42;;
43413;SDS011;29013;49.676;8.606;2023-06-19T22:46:07;3.21;;;2.1;;
43413;SDS011;29013;49.676;8.606;2023-06-19T22:51:32;2.33;;;1.98;;
43413;SDS011;29013;49.676;8.606;2023-06-19T22:56:56;2.61;;;2.34;;
43413;SDS011;29013;49.676;8.606;2023-06-19T23:02:40;3.88;;;2.58;;
43413;SDS011;29013;49.676;8.606;2023-06-19T23:08:04;2.93;;;2.2;;
43413;SDS011;29013;49.676;8.606;2023-06-19T23:14:02;3.58;;;2.51;;
43413;SDS011;29013;49.676;8.606;2023-06-19T23:19:40;3.15;;;2.66;;
43413;SDS011;29013;49.676;8.606;2023-06-19T23:25:04;3.03;;;2.32;;
43413;SDS011;29013;49.676;8.606;2023-06-19T23:30:29;2.25;;;2.3;;
43413;SDS011;29013;49.676;8.606;2023-06-19T23:35:50;3.39;;;2.14;;
43413;SDS011;29013;49.676;8.606;2023-06-19T23:41:16;3.11;;;2.69;;
43413;SDS011;29013;49.676;8.606;2023-06-19T23:46:41;2.69;;;2.23;;
43413;SDS011;29013;49.676;8.606;2023-06-19T23:52:24;3.55;;;2.9;;
43413;SDS011;29013;49.676;8.606;2023-06-19T23:57:46;3.52;;;2.43;;
